createdAt,value
2018-01-12T00:00:11.441Z,0
2018-01-12T00:01:11.462Z,0
2018-01-12T00:02:11.480Z,0
2018-01-12T00:03:11.242Z,0
2018-01-12T00:04:11.256Z,0
2018-01-12T00:05:26.202Z,0
2018-01-12T00:06:11.514Z,0
2018-01-12T00:07:11.324Z,0
2018-01-12T00:08:25.987Z,0
2018-01-12T00:09:11.076Z,0
2018-01-12T00:10:11.360Z,0
2018-01-12T00:11:11.627Z,0
2018-01-12T00:12:11.655Z,0
2018-01-12T00:13:11.418Z,0
2018-01-12T00:14:26.333Z,0
2018-01-12T00:15:11.644Z,0
2018-01-12T00:16:11.436Z,0
2018-01-12T00:17:26.352Z,0
2018-01-12T00:18:11.717Z,0
2018-01-12T00:19:11.709Z,0
2018-01-12T00:20:11.759Z,0
2018-01-12T00:21:41.108Z,0
2018-01-12T00:22:11.766Z,0
2018-01-12T00:23:11.790Z,0
2018-01-12T00:24:11.542Z,0
2018-01-12T00:25:26.495Z,0
2018-01-12T00:26:11.592Z,0
2018-01-12T00:27:26.527Z,0
2018-01-12T00:29:11.850Z,0
2018-01-12T00:30:11.639Z,0
2018-01-12T00:31:26.561Z,0
2018-01-12T00:32:11.940Z,0
2018-01-12T00:33:11.790Z,0
2018-01-12T00:34:26.603Z,0
2018-01-12T00:35:11.982Z,0
2018-01-12T00:36:26.650Z,0
2018-01-12T00:37:26.668Z,0
2018-01-12T00:38:12.024Z,0
2018-01-12T00:39:12.017Z,0
2018-01-12T00:41:12.054Z,0
2018-01-12T00:42:12.098Z,0
2018-01-12T00:43:11.567Z,0
2018-01-12T00:44:26.507Z,0
2018-01-12T00:45:12.214Z,0
2018-01-12T00:46:26.806Z,0
2018-01-12T00:47:12.145Z,0
2018-01-12T00:48:11.879Z,0
2018-01-12T00:49:12.182Z,0
2018-01-12T00:50:12.211Z,0
2018-01-12T00:51:12.425Z,0
2018-01-12T00:52:26.875Z,0
2018-01-12T00:53:11.962Z,0
2018-01-12T00:54:12.259Z,0
2018-01-12T00:56:12.002Z,0
2018-01-12T00:57:12.285Z,0
2018-01-12T00:58:12.309Z,0
2018-01-12T01:00:12.079Z,0
2018-01-12T01:01:12.322Z,0
2018-01-12T01:02:26.785Z,0
2018-01-12T01:04:12.135Z,0
2018-01-12T01:05:12.436Z,0
2018-01-12T01:06:12.407Z,0
2018-01-12T01:07:12.430Z,0
2018-01-12T01:08:12.206Z,0
2018-01-12T01:09:26.879Z,0
2018-01-12T01:10:12.460Z,0
2018-01-12T01:11:12.500Z,0
2018-01-12T01:12:12.611Z,0
2018-01-12T01:13:12.514Z,0
2018-01-12T01:14:12.542Z,0
2018-01-12T01:15:27.234Z,0
2018-01-12T01:17:26.990Z,0
2018-01-12T01:18:12.327Z,0
2018-01-12T01:19:12.362Z,0
2018-01-12T01:20:12.404Z,0
2018-01-12T01:21:12.398Z,0
2018-01-12T01:22:12.665Z,0
2018-01-12T01:23:27.334Z,0
2018-01-12T01:24:27.368Z,0
2018-01-12T01:25:12.686Z,0
2018-01-12T01:26:12.450Z,0
2018-01-12T01:27:12.734Z,0
2018-01-12T01:28:12.566Z,0
2018-01-12T01:29:12.739Z,0
2018-01-12T01:30:27.208Z,0
2018-01-12T01:31:12.831Z,0
2018-01-12T01:32:12.807Z,0
2018-01-12T01:33:27.511Z,0
2018-01-12T01:34:12.848Z,0
2018-01-12T01:35:12.861Z,0
2018-01-12T01:36:12.634Z,0
2018-01-12T01:37:12.654Z,0
2018-01-12T01:38:27.553Z,0
2018-01-12T01:39:12.930Z,0
2018-01-12T01:41:12.953Z,0
2018-01-12T01:42:12.956Z,0
2018-01-12T01:43:27.662Z,0
2018-01-12T01:44:27.745Z,0
2018-01-12T01:45:12.727Z,0
2018-01-12T01:46:13.054Z,0
2018-01-12T01:47:13.109Z,0
2018-01-12T01:48:13.069Z,0
2018-01-12T01:49:13.061Z,0
2018-01-12T01:50:13.077Z,0
2018-01-12T01:51:12.864Z,0
2018-01-12T01:52:13.122Z,0
2018-01-12T01:53:13.173Z,0
2018-01-12T01:55:27.561Z,0
2018-01-12T01:56:27.594Z,0
2018-01-12T01:57:12.942Z,0
2018-01-12T01:58:12.954Z,0
2018-01-12T01:59:12.969Z,0
2018-01-12T02:00:12.974Z,0
2018-01-12T02:01:12.961Z,0
2018-01-12T02:02:13.249Z,0
2018-01-12T02:03:13.250Z,0
2018-01-12T02:04:13.136Z,0
2018-01-12T02:05:13.041Z,0
2018-01-12T02:06:13.330Z,0
2018-01-12T02:07:13.054Z,0
2018-01-12T02:08:13.104Z,0
2018-01-12T02:09:13.379Z,0
2018-01-12T02:10:13.456Z,0
2018-01-12T02:11:12.901Z,0
2018-01-12T02:12:28.056Z,0
2018-01-12T02:13:13.413Z,0
2018-01-12T02:14:13.217Z,0
2018-01-12T02:15:13.444Z,0
2018-01-12T02:16:13.193Z,0
2018-01-12T02:17:13.526Z,0
2018-01-12T02:18:27.894Z,0
2018-01-12T02:19:13.518Z,0
2018-01-12T02:20:13.500Z,0
2018-01-12T02:21:13.528Z,0
2018-01-12T02:22:13.309Z,0
2018-01-12T02:23:28.227Z,0
2018-01-12T02:24:13.578Z,0
2018-01-12T02:25:13.361Z,0
2018-01-12T02:26:13.350Z,0
2018-01-12T02:27:28.386Z,0
2018-01-12T02:28:13.365Z,0
2018-01-12T02:29:13.492Z,0
2018-01-12T02:30:13.693Z,0
2018-01-12T02:31:13.661Z,0
2018-01-12T02:32:13.697Z,0
2018-01-12T02:33:13.480Z,0
2018-01-12T02:34:13.222Z,0
2018-01-12T02:35:28.431Z,0
2018-01-12T02:36:13.762Z,0
2018-01-12T02:37:13.768Z,0
2018-01-12T02:38:13.802Z,0
2018-01-12T02:40:13.564Z,0
2018-01-12T02:41:13.859Z,0
2018-01-12T02:42:13.849Z,0
2018-01-12T02:43:13.599Z,0
2018-01-12T02:44:13.695Z,0
2018-01-12T02:45:13.918Z,0
2018-01-12T02:46:13.661Z,0
2018-01-12T02:47:13.937Z,0
2018-01-12T02:48:28.616Z,0
2018-01-12T02:49:13.945Z,0
2018-01-12T02:50:13.953Z,0
2018-01-12T02:51:14.000Z,0
2018-01-12T02:52:14.030Z,0
2018-01-12T02:53:13.739Z,0
2018-01-12T02:54:13.770Z,0
2018-01-12T02:55:13.531Z,0
2018-01-12T02:56:14.040Z,0
2018-01-12T02:57:28.734Z,0
2018-01-12T02:58:14.102Z,0
2018-01-12T02:59:28.768Z,0
2018-01-12T03:00:14.115Z,0
2018-01-12T03:01:14.137Z,0
2018-01-12T03:02:28.560Z,0
2018-01-12T03:03:14.168Z,0
2018-01-12T03:04:28.843Z,0
2018-01-12T03:05:13.932Z,0
2018-01-12T03:06:13.997Z,0
2018-01-12T03:07:13.975Z,0
2018-01-12T03:08:14.202Z,0
2018-01-12T03:09:28.920Z,0
2018-01-12T03:10:14.251Z,0
2018-01-12T03:11:14.279Z,0
2018-01-12T03:12:14.288Z,0
2018-01-12T03:13:14.273Z,0
2018-01-12T03:14:14.056Z,0
2018-01-12T03:15:28.991Z,0
2018-01-12T03:16:14.328Z,0
2018-01-12T03:17:14.123Z,0
2018-01-12T03:18:13.844Z,0
2018-01-12T03:19:29.071Z,0
2018-01-12T03:20:14.448Z,0
2018-01-12T03:22:14.193Z,0
2018-01-12T03:23:29.127Z,0
2018-01-12T03:24:14.456Z,0
2018-01-12T03:25:14.457Z,0
2018-01-12T03:26:14.544Z,0
2018-01-12T03:27:14.515Z,0
2018-01-12T03:28:14.534Z,0
2018-01-12T03:29:14.522Z,0
2018-01-12T03:30:14.558Z,0
2018-01-12T03:31:29.244Z,0
2018-01-12T03:32:14.314Z,0
2018-01-12T03:33:14.587Z,0
2018-01-12T03:34:14.604Z,0
2018-01-12T03:35:14.629Z,0
2018-01-12T03:36:14.622Z,0
2018-01-12T03:37:14.625Z,0
2018-01-12T03:38:29.339Z,0
2018-01-12T03:39:14.654Z,0
2018-01-12T03:40:14.429Z,0
2018-01-12T03:41:14.730Z,0
2018-01-12T03:42:14.443Z,0
2018-01-12T03:43:14.480Z,0
2018-01-12T03:44:14.729Z,0
2018-01-12T03:45:29.429Z,0
2018-01-12T03:46:14.800Z,0
2018-01-12T03:47:29.466Z,0
2018-01-12T03:48:14.808Z,0
2018-01-12T03:49:14.796Z,0
2018-01-12T03:50:14.839Z,0
2018-01-12T03:51:14.871Z,0
2018-01-12T03:52:29.549Z,0
2018-01-12T03:53:14.879Z,0
2018-01-12T03:54:14.908Z,0
2018-01-12T03:56:14.965Z,0
2018-01-12T03:57:14.923Z,0
2018-01-12T03:58:14.698Z,0
2018-01-12T03:59:14.970Z,0
2018-01-12T04:00:14.980Z,0
2018-01-12T04:01:15.020Z,0
2018-01-12T04:02:29.716Z,0
2018-01-12T04:03:15.050Z,0
2018-01-12T04:04:15.061Z,0
2018-01-12T04:05:15.094Z,0
2018-01-12T04:06:14.812Z,0
2018-01-12T04:07:15.068Z,0
2018-01-12T04:08:29.505Z,0
2018-01-12T04:09:15.134Z,0
2018-01-12T04:10:15.133Z,0
2018-01-12T04:11:15.116Z,0
2018-01-12T04:12:29.598Z,0
2018-01-12T04:13:15.194Z,0
2018-01-12T04:14:29.844Z,0
2018-01-12T04:15:15.201Z,0
2018-01-12T04:16:15.232Z,0
2018-01-12T04:17:15.239Z,0
2018-01-12T04:18:14.991Z,0
2018-01-12T04:19:15.009Z,0
2018-01-12T04:21:15.064Z,0
2018-01-12T04:22:15.299Z,0
2018-01-12T04:23:15.352Z,0
2018-01-12T04:24:15.314Z,0
2018-01-12T04:25:15.322Z,0
2018-01-12T04:26:29.764Z,0
2018-01-12T04:27:15.375Z,0
2018-01-12T04:28:15.403Z,0
2018-01-12T04:29:15.422Z,0
2018-01-12T04:30:30.087Z,0
2018-01-12T04:31:15.462Z,0
2018-01-12T04:32:15.446Z,0
2018-01-12T04:33:15.460Z,0
2018-01-12T04:34:30.178Z,0
2018-01-12T04:35:15.497Z,0
2018-01-12T04:36:15.536Z,0
2018-01-12T04:37:15.517Z,0
2018-01-12T04:38:15.522Z,0
2018-01-12T04:39:30.227Z,0
2018-01-12T04:40:15.297Z,0
2018-01-12T04:41:30.254Z,0
2018-01-12T04:42:15.575Z,0
2018-01-12T04:43:15.334Z,0
2018-01-12T04:44:30.302Z,0
2018-01-12T04:45:15.422Z,0
2018-01-12T04:46:15.418Z,0
2018-01-12T04:47:15.641Z,0
2018-01-12T04:48:15.402Z,0
2018-01-12T04:49:15.718Z,0
2018-01-12T04:50:30.372Z,0
2018-01-12T04:51:30.406Z,0
2018-01-12T04:52:15.485Z,0
2018-01-12T04:53:15.758Z,0
2018-01-12T04:54:15.531Z,0
2018-01-12T04:55:15.783Z,0
2018-01-12T04:56:15.525Z,0
2018-01-12T04:57:15.802Z,0
2018-01-12T04:59:15.885Z,0
2018-01-12T05:00:15.341Z,0
2018-01-12T05:01:15.899Z,0
2018-01-12T05:02:15.885Z,0
2018-01-12T05:03:15.915Z,0
2018-01-12T05:04:15.932Z,0
2018-01-12T05:05:15.917Z,0
2018-01-12T05:06:30.613Z,0
2018-01-12T05:07:15.737Z,0
2018-01-12T05:08:15.449Z,0
2018-01-12T05:09:16.006Z,0
2018-01-12T05:10:30.438Z,0
2018-01-12T05:11:15.801Z,0
2018-01-12T05:12:30.711Z,0
2018-01-12T05:13:16.048Z,0
2018-01-12T05:14:16.103Z,0
2018-01-12T05:15:16.096Z,0
2018-01-12T05:16:16.089Z,0
2018-01-12T05:17:16.127Z,0
2018-01-12T05:18:30.799Z,0
2018-01-12T05:19:16.130Z,0
2018-01-12T05:20:16.147Z,0
2018-01-12T05:21:16.163Z,0
2018-01-12T05:22:30.839Z,0
2018-01-12T05:23:16.200Z,0
2018-01-12T05:24:15.949Z,0
2018-01-12T05:25:16.228Z,0
2018-01-12T05:26:30.930Z,0
2018-01-12T05:27:16.263Z,0
2018-01-12T05:28:30.668Z,0
2018-01-12T05:29:16.280Z,0
2018-01-12T05:30:16.021Z,0
2018-01-12T05:31:16.282Z,0
2018-01-12T05:32:31.018Z,0
2018-01-12T05:33:16.363Z,0
2018-01-12T05:34:16.345Z,0
2018-01-12T05:35:31.107Z,0
2018-01-12T05:36:16.103Z,0
2018-01-12T05:37:30.801Z,0
2018-01-12T05:38:16.423Z,0
2018-01-12T05:39:16.506Z,0
2018-01-12T05:40:16.217Z,0
2018-01-12T05:41:16.423Z,0
2018-01-12T05:42:30.865Z,0
2018-01-12T05:43:16.238Z,0
2018-01-12T05:44:16.562Z,0
2018-01-12T05:45:16.480Z,0
2018-01-12T05:46:31.192Z,0
2018-01-12T05:47:16.535Z,0
2018-01-12T05:48:16.301Z,0
2018-01-12T05:49:16.565Z,0
2018-01-12T05:50:16.579Z,0
2018-01-12T05:51:16.573Z,0
2018-01-12T05:53:16.600Z,0
2018-01-12T05:54:16.625Z,0
2018-01-12T05:55:16.660Z,0
2018-01-12T05:56:16.649Z,0
2018-01-12T05:57:16.423Z,0
2018-01-12T05:58:16.431Z,0
2018-01-12T05:59:16.698Z,0
2018-01-12T06:00:16.533Z,0
2018-01-12T06:01:31.406Z,0
2018-01-12T06:02:31.443Z,0
2018-01-12T06:03:16.766Z,0
2018-01-12T06:04:16.797Z,0
2018-01-12T06:05:31.456Z,0
2018-01-12T06:06:16.834Z,0
2018-01-12T06:07:16.914Z,0
2018-01-12T06:08:16.556Z,0
2018-01-12T06:09:31.503Z,0
2018-01-12T06:10:16.869Z,0
2018-01-12T06:11:31.558Z,0
2018-01-12T06:12:16.646Z,0
2018-01-12T06:13:16.898Z,0
2018-01-12T06:14:16.938Z,0
2018-01-12T06:15:31.594Z,0
2018-01-12T06:16:16.950Z,0
2018-01-12T06:17:16.734Z,0
2018-01-12T06:18:16.973Z,0
2018-01-12T06:19:16.990Z,0
2018-01-12T06:20:31.659Z,0
2018-01-12T06:21:17.019Z,0
2018-01-12T06:22:16.806Z,0
2018-01-12T06:23:17.142Z,0
2018-01-12T06:24:31.714Z,0
2018-01-12T06:25:31.754Z,0
2018-01-12T06:26:17.121Z,0
2018-01-12T06:27:17.121Z,0
2018-01-12T06:28:16.851Z,0
2018-01-12T06:29:17.155Z,0
2018-01-12T06:30:17.143Z,0
2018-01-12T06:31:31.588Z,0
2018-01-12T06:32:31.850Z,0
2018-01-12T06:35:31.642Z,0
2018-01-12T06:36:16.721Z,0
2018-01-12T06:37:16.990Z,0
2018-01-12T06:38:17.000Z,0
2018-01-12T06:39:17.007Z,0
2018-01-12T06:40:31.718Z,0
2018-01-12T06:41:31.998Z,0
2018-01-12T06:42:17.047Z,0
2018-01-12T06:43:17.418Z,0
2018-01-12T06:44:17.347Z,0
2018-01-12T06:45:17.330Z,0
2018-01-12T06:46:32.052Z,4
2018-01-12T06:47:17.413Z,4
2018-01-12T06:48:31.843Z,4
2018-01-12T06:49:17.393Z,0
2018-01-12T06:50:32.128Z,4
2018-01-12T06:51:17.192Z,4
2018-01-12T06:52:17.455Z,0
2018-01-12T06:53:32.162Z,4
2018-01-12T06:55:17.504Z,4
2018-01-12T06:56:17.621Z,8
2018-01-12T06:57:32.213Z,4
2018-01-12T06:58:17.288Z,8
2018-01-12T06:59:17.541Z,4
2018-01-12T07:00:17.553Z,8
2018-01-12T07:01:32.000Z,8
2018-01-12T07:02:17.600Z,12
2018-01-12T07:03:32.347Z,12
2018-01-12T07:04:17.609Z,12
2018-01-12T07:05:17.408Z,12
2018-01-12T07:06:17.673Z,16
2018-01-12T07:07:17.424Z,16
2018-01-12T07:08:32.346Z,20
2018-01-12T07:09:17.741Z,16
2018-01-12T07:10:17.714Z,20
2018-01-12T07:12:32.432Z,28
2018-01-12T07:13:17.777Z,32
2018-01-12T07:14:17.800Z,32
2018-01-12T07:15:17.775Z,36
2018-01-12T07:16:17.816Z,36
2018-01-12T07:17:17.552Z,40
2018-01-12T07:18:17.615Z,48
2018-01-12T07:19:17.890Z,48
2018-01-12T07:20:17.988Z,52
2018-01-12T07:22:17.903Z,52
2018-01-12T07:23:17.909Z,56
2018-01-12T07:24:32.609Z,64
2018-01-12T07:25:17.926Z,64
2018-01-12T07:26:32.596Z,68
2018-01-12T07:27:18.055Z,68
2018-01-12T07:28:17.969Z,72
2018-01-12T07:29:17.992Z,84
2018-01-12T07:30:18.094Z,80
2018-01-12T07:31:18.021Z,84
2018-01-12T07:32:18.028Z,92
2018-01-12T07:33:17.801Z,100
2018-01-12T07:34:18.058Z,104
2018-01-12T07:35:18.091Z,96
2018-01-12T07:36:18.105Z,100
2018-01-12T07:37:18.111Z,112
2018-01-12T07:38:18.095Z,128
2018-01-12T07:39:18.141Z,144
2018-01-12T07:40:17.887Z,136
2018-01-12T07:41:18.174Z,132
2018-01-12T07:42:32.829Z,140
2018-01-12T07:43:18.190Z,144
2018-01-12T07:44:32.876Z,148
2018-01-12T07:45:18.212Z,152
2018-01-12T07:46:18.234Z,156
2018-01-12T07:47:18.250Z,160
2018-01-12T07:48:32.934Z,176
2018-01-12T07:49:18.306Z,196
2018-01-12T07:50:18.399Z,196
2018-01-12T07:51:18.319Z,196
2018-01-12T07:52:18.051Z,172
2018-01-12T07:53:18.337Z,188
2018-01-12T07:54:18.325Z,204
2018-01-12T07:55:18.371Z,224
2018-01-12T07:56:18.374Z,236
2018-01-12T07:57:18.386Z,240
2018-01-12T07:58:18.162Z,264
2018-01-12T07:59:18.434Z,264
2018-01-12T08:00:47.520Z,252
2018-01-12T08:02:18.450Z,256
2018-01-12T08:03:18.516Z,264
2018-01-12T08:04:18.208Z,284
2018-01-12T08:05:18.490Z,292
2018-01-12T08:06:18.508Z,272
2018-01-12T08:07:18.507Z,280
2018-01-12T08:08:18.552Z,296
2018-01-12T08:09:18.066Z,348
2018-01-12T08:10:18.573Z,388
2018-01-12T08:11:18.570Z,396
2018-01-12T08:12:18.354Z,364
2018-01-12T08:14:18.391Z,404
2018-01-12T08:15:18.404Z,460
2018-01-12T08:16:33.329Z,468
2018-01-12T08:17:18.397Z,456
2018-01-12T08:19:18.728Z,520
2018-01-12T08:20:18.688Z,560
2018-01-12T08:22:18.734Z,644
2018-01-12T08:23:18.757Z,672
2018-01-12T08:24:18.760Z,664
2018-01-12T08:26:18.786Z,708
2018-01-12T08:27:18.790Z,712
2018-01-12T08:28:33.530Z,752
2018-01-12T08:29:18.885Z,788
2018-01-12T08:30:18.865Z,740
2018-01-12T08:31:18.846Z,692
2018-01-12T08:32:33.320Z,640
2018-01-12T08:33:18.905Z,620
2018-01-12T08:34:18.923Z,548
2018-01-12T08:35:18.936Z,560
2018-01-12T08:36:18.682Z,540
2018-01-12T08:37:18.714Z,548
2018-01-12T08:38:18.475Z,560
2018-01-12T08:39:18.979Z,604
2018-01-12T08:40:19.009Z,628
2018-01-12T08:41:18.985Z,628
2018-01-12T08:42:18.752Z,644
2018-01-12T08:43:19.067Z,708
2018-01-12T08:44:19.054Z,712
2018-01-12T08:45:18.789Z,664
2018-01-12T08:46:18.563Z,692
2018-01-12T08:47:33.520Z,728
2018-01-12T08:48:19.104Z,764
2018-01-12T08:49:19.123Z,836
2018-01-12T08:50:19.132Z,804
2018-01-12T08:51:19.137Z,852
2018-01-12T08:52:18.913Z,940
2018-01-12T08:53:19.219Z,912
2018-01-12T08:54:19.210Z,912
2018-01-12T08:55:33.877Z,976
2018-01-12T08:56:18.985Z,1068
2018-01-12T08:57:19.253Z,1180
2018-01-12T08:58:34.013Z,1080
2018-01-12T08:59:19.270Z,1072
2018-01-12T09:01:19.108Z,936
2018-01-12T09:02:19.051Z,872
2018-01-12T09:03:18.858Z,844
2018-01-12T09:04:19.123Z,768
2018-01-12T09:05:19.356Z,652
2018-01-12T09:06:19.370Z,684
2018-01-12T09:07:19.387Z,764
2018-01-12T09:08:19.374Z,848
2018-01-12T09:09:19.406Z,860
2018-01-12T09:10:18.906Z,952
2018-01-12T09:11:18.956Z,948
2018-01-12T09:12:34.252Z,1080
2018-01-12T09:13:19.223Z,1136
2018-01-12T09:14:19.488Z,1096
2018-01-12T09:15:19.245Z,968
2018-01-12T09:16:19.342Z,1020
2018-01-12T09:17:19.269Z,952
2018-01-12T09:18:19.565Z,960
2018-01-12T09:19:34.266Z,924
2018-01-12T09:20:19.318Z,1012
2018-01-12T09:22:19.349Z,1024
2018-01-12T09:23:19.591Z,1312
2018-01-12T09:24:34.035Z,1200
2018-01-12T09:25:19.677Z,1052
2018-01-12T09:26:19.758Z,1000
2018-01-12T09:27:19.710Z,1040
2018-01-12T09:28:19.706Z,972
2018-01-12T09:29:19.737Z,984
2018-01-12T09:30:19.737Z,1064
2018-01-12T09:31:19.767Z,1072
2018-01-12T09:32:19.745Z,1092
2018-01-12T09:33:19.774Z,1124
2018-01-12T09:34:19.532Z,1084
2018-01-12T09:35:34.208Z,1304
2018-01-12T09:36:19.775Z,1420
2018-01-12T09:37:19.795Z,1516
2018-01-12T09:38:19.923Z,1584
2018-01-12T09:39:34.292Z,1476
2018-01-12T09:40:19.601Z,1460
2018-01-12T09:41:19.606Z,1328
2018-01-12T09:42:19.689Z,1216
2018-01-12T09:43:19.641Z,1124
2018-01-12T09:44:34.581Z,1004
2018-01-12T09:45:19.909Z,924
2018-01-12T09:46:19.945Z,888
2018-01-12T09:47:19.936Z,872
2018-01-12T09:48:20.122Z,932
2018-01-12T09:49:20.009Z,1016
2018-01-12T09:50:20.018Z,976
2018-01-12T09:51:34.696Z,908
2018-01-12T09:52:20.023Z,900
2018-01-12T09:53:20.122Z,840
2018-01-12T09:54:20.076Z,732
2018-01-12T09:55:19.564Z,640
2018-01-12T09:56:20.103Z,640
2018-01-12T09:57:19.834Z,660
2018-01-12T09:58:20.119Z,660
2018-01-12T09:59:34.799Z,728
2018-01-12T10:00:20.128Z,728
2018-01-12T10:01:20.155Z,692
2018-01-12T10:02:19.897Z,676
2018-01-12T10:04:34.866Z,708
2018-01-12T10:05:19.707Z,688
2018-01-12T10:06:20.119Z,712
2018-01-12T10:07:34.669Z,700
2018-01-12T10:08:34.924Z,720
2018-01-12T10:09:20.278Z,760
2018-01-12T10:10:19.798Z,756
2018-01-12T10:11:20.324Z,836
2018-01-12T10:12:19.806Z,904
2018-01-12T10:13:20.345Z,984
2018-01-12T10:14:20.111Z,1020
2018-01-12T10:15:20.375Z,1016
2018-01-12T10:16:20.394Z,1084
2018-01-12T10:18:20.402Z,1168
2018-01-12T10:19:20.396Z,1272
2018-01-12T10:20:20.430Z,1332
2018-01-12T10:21:20.438Z,1352
2018-01-12T10:22:49.550Z,1260
2018-01-12T10:23:20.475Z,1336
2018-01-12T10:24:20.500Z,1324
2018-01-12T10:25:20.251Z,1352
2018-01-12T10:26:20.313Z,1368
2018-01-12T10:27:20.508Z,1324
2018-01-12T10:29:20.559Z,1272
2018-01-12T10:30:20.594Z,1272
2018-01-12T10:32:20.354Z,1228
2018-01-12T10:33:20.356Z,1168
2018-01-12T10:34:20.656Z,1164
2018-01-12T10:35:20.661Z,1176
2018-01-12T10:36:20.678Z,1224
2018-01-12T10:37:20.737Z,1224
2018-01-12T10:38:20.675Z,1276
2018-01-12T10:39:20.706Z,1228
2018-01-12T10:40:20.451Z,1104
2018-01-12T10:41:20.494Z,1096
2018-01-12T10:42:20.503Z,1052
2018-01-12T10:43:20.247Z,1068
2018-01-12T10:44:20.779Z,1096
2018-01-12T10:45:20.815Z,1004
2018-01-12T10:46:20.804Z,864
2018-01-12T10:47:20.589Z,856
2018-01-12T10:49:20.854Z,780
2018-01-12T10:50:20.902Z,832
2018-01-12T10:51:35.302Z,1020
2018-01-12T10:52:20.934Z,1028
2018-01-12T10:53:20.884Z,1048
2018-01-12T10:54:35.101Z,1056
2018-01-12T10:55:20.422Z,932
2018-01-12T10:56:20.697Z,912
2018-01-12T10:57:20.713Z,996
2018-01-12T10:59:20.996Z,996
2018-01-12T11:00:21.037Z,976
2018-01-12T11:02:21.036Z,1136
2018-01-12T11:03:21.031Z,1196
2018-01-12T11:04:35.745Z,1248
2018-01-12T11:05:21.076Z,1280
2018-01-12T11:06:20.831Z,1252
2018-01-12T11:07:21.131Z,1128
2018-01-12T11:08:21.131Z,1032
2018-01-12T11:09:21.153Z,904
2018-01-12T11:10:35.346Z,844
2018-01-12T11:11:20.914Z,816
2018-01-12T11:12:20.952Z,928
2018-01-12T11:13:20.965Z,976
2018-01-12T11:14:20.691Z,880
2018-01-12T11:15:21.018Z,872
2018-01-12T11:16:21.244Z,904
2018-01-12T11:17:21.256Z,908
2018-01-12T11:18:35.430Z,792
2018-01-12T11:19:21.336Z,800
2018-01-12T11:20:21.338Z,856
2018-01-12T11:21:21.308Z,940
2018-01-12T11:22:21.076Z,960
2018-01-12T11:23:20.817Z,904
2018-01-12T11:24:36.032Z,940
2018-01-12T11:25:36.086Z,1024
2018-01-12T11:26:36.048Z,1108
2018-01-12T11:27:21.443Z,1140
2018-01-12T11:28:21.410Z,1144
2018-01-12T11:29:21.456Z,1136
2018-01-12T11:30:21.426Z,1060
2018-01-12T11:31:21.214Z,1008
2018-01-12T11:32:21.472Z,1004
2018-01-12T11:33:21.493Z,1064
2018-01-12T11:34:21.245Z,1148
2018-01-12T11:35:36.194Z,1112
2018-01-12T11:36:21.276Z,1120
2018-01-12T11:37:21.530Z,1180
2018-01-12T11:38:21.305Z,1136
2018-01-12T11:39:21.312Z,1060
2018-01-12T11:40:21.570Z,1100
2018-01-12T11:41:21.379Z,1268
2018-01-12T11:42:36.294Z,1148
2018-01-12T11:43:21.628Z,972
2018-01-12T11:44:21.643Z,912
2018-01-12T11:45:21.642Z,872
2018-01-12T11:46:21.440Z,804
2018-01-12T11:47:21.695Z,852
2018-01-12T11:48:21.706Z,836
2018-01-12T11:49:36.495Z,804
2018-01-12T11:50:21.473Z,836
2018-01-12T11:51:21.744Z,856
2018-01-12T11:52:21.741Z,872
2018-01-12T11:53:21.896Z,868
2018-01-12T11:54:21.797Z,880
2018-01-12T11:55:21.796Z,916
2018-01-12T11:56:36.484Z,928
2018-01-12T11:57:36.283Z,936
2018-01-12T11:58:21.862Z,936
2018-01-12T11:59:21.596Z,968
2018-01-12T12:00:21.856Z,996
2018-01-12T12:01:21.638Z,952
2018-01-12T12:02:21.927Z,968
2018-01-12T12:03:21.923Z,956
2018-01-12T12:04:21.917Z,936
2018-01-12T12:06:21.719Z,1048
2018-01-12T12:07:21.980Z,1024
2018-01-12T12:08:21.996Z,1068
2018-01-12T12:09:22.016Z,1088
2018-01-12T12:10:36.450Z,1060
2018-01-12T12:11:36.446Z,1024
2018-01-12T12:12:22.074Z,1024
2018-01-12T12:13:22.190Z,972
2018-01-12T12:14:21.580Z,896
2018-01-12T12:15:22.097Z,900
2018-01-12T12:17:21.856Z,924
2018-01-12T12:18:21.642Z,868
2018-01-12T12:19:22.135Z,872
2018-01-12T12:20:22.145Z,920
2018-01-12T12:21:22.205Z,856
2018-01-12T12:22:21.936Z,788
2018-01-12T12:24:21.987Z,908
2018-01-12T12:27:22.276Z,892
2018-01-12T12:28:22.045Z,856
2018-01-12T12:29:36.963Z,740
2018-01-12T12:30:22.338Z,716
2018-01-12T12:31:22.074Z,732
2018-01-12T12:32:22.327Z,728
2018-01-12T12:33:22.099Z,800
2018-01-12T12:34:22.160Z,764
2018-01-12T12:35:22.214Z,748
2018-01-12T12:36:22.376Z,704
2018-01-12T12:37:37.075Z,672
2018-01-12T12:38:37.121Z,696
2018-01-12T12:39:22.423Z,724
2018-01-12T12:40:22.469Z,784
2018-01-12T12:41:22.229Z,780
2018-01-12T12:42:22.473Z,800
2018-01-12T12:43:22.493Z,828
2018-01-12T12:44:22.500Z,940
2018-01-12T12:45:36.946Z,868
2018-01-12T12:46:22.289Z,788
2018-01-12T12:47:22.555Z,784
2018-01-12T12:48:22.578Z,832
2018-01-12T12:49:22.629Z,796
2018-01-12T12:50:22.395Z,832
2018-01-12T12:51:22.649Z,884
2018-01-12T12:52:37.310Z,840
2018-01-12T12:53:22.389Z,796
2018-01-12T12:54:37.065Z,780
2018-01-12T12:55:22.415Z,800
2018-01-12T12:56:22.681Z,892
2018-01-12T12:57:37.386Z,836
2018-01-12T12:58:22.473Z,824
2018-01-12T12:59:22.463Z,868
2018-01-12T13:00:37.402Z,920
2018-01-12T13:03:22.284Z,820
2018-01-12T13:04:22.827Z,804
2018-01-12T13:05:22.657Z,796
2018-01-12T13:07:22.935Z,808
2018-01-12T13:08:22.615Z,832
2018-01-12T13:09:22.602Z,864
2018-01-12T13:10:22.620Z,836
2018-01-12T13:11:22.884Z,728
2018-01-12T13:13:23.044Z,720
2018-01-12T13:14:22.686Z,792
2018-01-12T13:15:22.993Z,732
2018-01-12T13:16:22.219Z,716
2018-01-12T13:17:37.761Z,756
2018-01-12T13:19:22.777Z,664
2018-01-12T13:21:23.053Z,672
2018-01-12T13:22:23.168Z,632
2018-01-12T13:23:23.125Z,624
2018-01-12T13:24:23.079Z,704
2018-01-12T13:25:23.107Z,692
2018-01-12T13:26:23.158Z,664
2018-01-12T13:27:23.132Z,656
2018-01-12T13:28:22.917Z,744
2018-01-12T13:29:37.854Z,708
2018-01-12T13:30:22.910Z,660
2018-01-12T13:31:23.193Z,616
2018-01-12T13:32:52.308Z,608
2018-01-12T13:33:37.646Z,600
2018-01-12T13:34:23.239Z,608
2018-01-12T13:36:23.249Z,608
2018-01-12T13:37:23.258Z,576
2018-01-12T13:38:23.464Z,564
2018-01-12T13:39:23.332Z,596
2018-01-12T13:40:23.328Z,568
2018-01-12T13:41:23.088Z,540
2018-01-12T13:42:22.833Z,580
2018-01-12T13:43:23.155Z,616
2018-01-12T13:44:23.365Z,568
2018-01-12T13:45:38.072Z,556
2018-01-12T13:46:37.842Z,536
2018-01-12T13:47:23.175Z,500
2018-01-12T13:48:23.172Z,452
2018-01-12T13:49:23.455Z,456
2018-01-12T13:50:23.475Z,492
2018-01-12T13:51:23.506Z,468
2018-01-12T13:52:22.997Z,536
2018-01-12T13:53:23.261Z,492
2018-01-12T13:54:23.527Z,452
2018-01-12T13:55:23.545Z,424
2018-01-12T13:56:23.287Z,396
2018-01-12T13:57:23.313Z,364
2018-01-12T13:58:38.263Z,328
2018-01-12T13:59:23.585Z,324
2018-01-12T14:00:23.633Z,356
2018-01-12T14:01:23.610Z,412
2018-01-12T14:02:23.462Z,412
2018-01-12T14:03:23.134Z,364
2018-01-12T14:04:38.092Z,364
2018-01-12T14:05:38.106Z,348
2018-01-12T14:06:23.457Z,324
2018-01-12T14:07:23.464Z,316
2018-01-12T14:08:37.967Z,320
2018-01-12T14:09:23.842Z,312
2018-01-12T14:10:23.746Z,276
2018-01-12T14:11:23.520Z,280
2018-01-12T14:12:23.520Z,292
2018-01-12T14:13:23.857Z,296
2018-01-12T14:15:23.581Z,272
2018-01-12T14:16:23.326Z,268
2018-01-12T14:17:23.887Z,256
2018-01-12T14:18:23.625Z,240
2018-01-12T14:19:23.888Z,240
2018-01-12T14:20:53.001Z,232
2018-01-12T14:21:23.666Z,236
2018-01-12T14:22:23.700Z,232
2018-01-12T14:23:23.947Z,224
2018-01-12T14:24:38.379Z,212
2018-01-12T14:25:23.997Z,212
2018-01-12T14:26:24.010Z,200
2018-01-12T14:27:24.047Z,188
2018-01-12T14:28:23.784Z,188
2018-01-12T14:29:24.073Z,184
2018-01-12T14:30:38.470Z,180
2018-01-12T14:31:24.069Z,180
2018-01-12T14:32:23.866Z,172
2018-01-12T14:33:24.100Z,164
2018-01-12T14:34:24.106Z,168
2018-01-12T14:35:23.878Z,172
2018-01-12T14:36:38.839Z,156
2018-01-12T14:37:23.885Z,152
2018-01-12T14:38:23.917Z,140
2018-01-12T14:39:23.920Z,140
2018-01-12T14:40:23.960Z,144
2018-01-12T14:41:24.210Z,136
2018-01-12T14:42:23.997Z,128
2018-01-12T14:43:24.236Z,128
2018-01-12T14:44:24.367Z,116
2018-01-12T14:45:24.249Z,104
2018-01-12T14:46:23.767Z,96
2018-01-12T14:47:24.269Z,92
2018-01-12T14:48:24.310Z,88
2018-01-12T14:49:38.981Z,84
2018-01-12T14:50:39.018Z,80
2018-01-12T14:51:23.877Z,76
2018-01-12T14:52:39.068Z,72
2018-01-12T14:53:23.869Z,72
2018-01-12T14:54:24.375Z,64
2018-01-12T14:55:24.448Z,60
2018-01-12T14:56:23.934Z,64
2018-01-12T14:57:24.200Z,60
2018-01-12T14:58:24.470Z,56